sensor_id;sensor_type;location;lat;lon;timestamp;pressure;altitude;pressure_sealevel;temperature;humidity
40372;BME280;28564;53.346;-6.554;2022-10-18T00:00:15;101588.76;;;11.01;49.87
40372;BME280;28564;53.346;-6.554;2022-10-18T00:02:43;101588.33;;;10.71;49.88
40372;BME280;28564;53.346;-6.554;2022-10-18T00:05:10;101589.93;;;10.96;49.90
40372;BME280;28564;53.346;-6.554;2022-10-18T00:07:37;101588.02;;;10.65;49.86
40372;BME280;28564;53.346;-6.554;2022-10-18T00:10:05;101586.02;;;10.86;49.78
40372;BME280;28564;53.346;-6.554;2022-10-18T00:12:33;101592.06;;;10.82;49.74
40372;BME280;28564;53.346;-6.554;2022-10-18T00:15:01;101596.87;;;10.79;49.72
40372;BME280;28564;53.346;-6.554;2022-10-18T00:17:29;101599.23;;;10.48;49.68
40372;BME280;28564;53.346;-6.554;2022-10-18T00:19:56;101602.19;;;10.69;49.64
40372;BME280;28564;53.346;-6.554;2022-10-18T00:22:24;101602.28;;;10.63;49.70
40372;BME280;28564;53.346;-6.554;2022-10-18T00:24:51;101605.11;;;10.59;49.70
40372;BME280;28564;53.346;-6.554;2022-10-18T00:27:18;101605.94;;;10.55;49.69
40372;BME280;28564;53.346;-6.554;2022-10-18T00:29:45;101606.48;;;10.51;49.66
40372;BME280;28564;53.346;-6.554;2022-10-18T00:32:12;101607.68;;;10.43;49.53
40372;BME280;28564;53.346;-6.554;2022-10-18T00:34:40;101605.99;;;10.37;49.57
40372;BME280;28564;53.346;-6.554;2022-10-18T00:37:07;101608.43;;;10.34;49.63
40372;BME280;28564;53.346;-6.554;2022-10-18T00:39:35;101606.24;;;9.84;49.63
40372;BME280;28564;53.346;-6.554;2022-10-18T00:42:02;101605.32;;;10.32;49.51
40372;BME280;28564;53.346;-6.554;2022-10-18T00:45:17;101605.56;;;10.25;49.58
40372;BME280;28564;53.346;-6.554;2022-10-18T00:47:48;101606.45;;;10.24;49.71
40372;BME280;28564;53.346;-6.554;2022-10-18T00:50:19;101609.64;;;9.97;49.74
40372;BME280;28564;53.346;-6.554;2022-10-18T00:52:50;101608.82;;;10.22;49.72
40372;BME280;28564;53.346;-6.554;2022-10-18T00:55:18;101612.44;;;10.19;49.76
40372;BME280;28564;53.346;-6.554;2022-10-18T00:57:46;101613.14;;;10.15;49.61
40372;BME280;28564;53.346;-6.554;2022-10-18T01:00:15;101615.79;;;10.07;49.56
40372;BME280;28564;53.346;-6.554;2022-10-18T01:02:44;101615.55;;;9.74;49.79
40372;BME280;28564;53.346;-6.554;2022-10-18T01:05:13;101610.93;;;10.02;49.86
40372;BME280;28564;53.346;-6.554;2022-10-18T01:10:45;101607.34;;;10.02;49.87
40372;BME280;28564;53.346;-6.554;2022-10-18T01:13:30;101608.80;;;10.04;49.83
40372;BME280;28564;53.346;-6.554;2022-10-18T01:16:04;101612.06;;;10.02;49.78
40372;BME280;28564;53.346;-6.554;2022-10-18T01:18:38;101618.86;;;9.96;49.67
40372;BME280;28564;53.346;-6.554;2022-10-18T01:21:14;101623.12;;;9.86;49.54
40372;BME280;28564;53.346;-6.554;2022-10-18T01:24:02;101618.46;;;9.75;49.73
40372;BME280;28564;53.346;-6.554;2022-10-18T01:26:50;101615.29;;;9.96;49.94
40372;BME280;28564;53.346;-6.554;2022-10-18T01:29:31;101613.85;;;9.73;49.90
40372;BME280;28564;53.346;-6.554;2022-10-18T01:32:05;101620.53;;;9.93;49.86
40372;BME280;28564;53.346;-6.554;2022-10-18T01:34:37;101627.98;;;9.64;49.72
40372;BME280;28564;53.346;-6.554;2022-10-18T01:37:10;101632.22;;;9.59;49.81
40372;BME280;28564;53.346;-6.554;2022-10-18T01:39:42;101634.21;;;10.07;49.83
40372;BME280;28564;53.346;-6.554;2022-10-18T01:42:13;101634.35;;;9.56;49.86
40372;BME280;28564;53.346;-6.554;2022-10-18T01:44:43;101635.48;;;9.54;49.97
40372;BME280;28564;53.346;-6.554;2022-10-18T01:47:13;101635.83;;;9.62;49.74
40372;BME280;28564;53.346;-6.554;2022-10-18T01:49:41;101635.95;;;9.57;49.82
40372;BME280;28564;53.346;-6.554;2022-10-18T01:52:09;101633.88;;;9.52;49.93
40372;BME280;28564;53.346;-6.554;2022-10-18T01:54:41;101634.85;;;9.73;49.84
40372;BME280;28564;53.346;-6.554;2022-10-18T01:57:15;101640.78;;;9.63;49.72
40372;BME280;28564;53.346;-6.554;2022-10-18T01:59:52;101644.82;;;9.56;49.87
40372;BME280;28564;53.346;-6.554;2022-10-18T02:02:34;101645.52;;;9.57;49.90
40372;BME280;28564;53.346;-6.554;2022-10-18T02:05:13;101648.47;;;9.27;49.75
40372;BME280;28564;53.346;-6.554;2022-10-18T02:07:47;101648.19;;;9.49;49.75
40372;BME280;28564;53.346;-6.554;2022-10-18T02:10:21;101645.48;;;9.15;49.80
40372;BME280;28564;53.346;-6.554;2022-10-18T02:12:52;101645.36;;;9.40;49.87
40372;BME280;28564;53.346;-6.554;2022-10-18T02:15:22;101645.99;;;9.34;49.69
40372;BME280;28564;53.346;-6.554;2022-10-18T02:17:51;101642.63;;;9.26;49.76
40372;BME280;28564;53.346;-6.554;2022-10-18T02:20:22;101644.93;;;9.27;49.91
40372;BME280;28564;53.346;-6.554;2022-10-18T02:22:52;101648.60;;;9.31;49.98
40372;BME280;28564;53.346;-6.554;2022-10-18T02:25:24;101648.51;;;9.34;50.01
40372;BME280;28564;53.346;-6.554;2022-10-18T02:27:54;101648.01;;;9.39;50.11
40372;BME280;28564;53.346;-6.554;2022-10-18T02:30:25;101646.06;;;9.16;50.14
40372;BME280;28564;53.346;-6.554;2022-10-18T02:32:59;101646.66;;;9.44;50.05
40372;BME280;28564;53.346;-6.554;2022-10-18T02:35:30;101642.79;;;9.45;49.99
40372;BME280;28564;53.346;-6.554;2022-10-18T02:37:59;101642.17;;;9.45;49.92
40372;BME280;28564;53.346;-6.554;2022-10-18T02:40:29;101647.90;;;9.44;49.90
40372;BME280;28564;53.346;-6.554;2022-10-18T02:42:57;101656.26;;;9.45;49.93
40372;BME280;28564;53.346;-6.554;2022-10-18T02:45:25;101662.91;;;9.45;49.92
40372;BME280;28564;53.346;-6.554;2022-10-18T02:47:53;101667.32;;;9.15;49.76
40372;BME280;28564;53.346;-6.554;2022-10-18T02:50:20;101666.77;;;9.33;49.77
40372;BME280;28564;53.346;-6.554;2022-10-18T02:52:48;101668.66;;;9.24;49.84
40372;BME280;28564;53.346;-6.554;2022-10-18T02:55:15;101669.87;;;9.23;50.04
40372;BME280;28564;53.346;-6.554;2022-10-18T02:57:42;101667.36;;;9.23;50.07
40372;BME280;28564;53.346;-6.554;2022-10-18T03:00:11;101665.53;;;9.23;50.08
40372;BME280;28564;53.346;-6.554;2022-10-18T03:02:38;101666.99;;;9.22;50.10
40372;BME280;28564;53.346;-6.554;2022-10-18T03:05:05;101669.61;;;9.24;50.16
40372;BME280;28564;53.346;-6.554;2022-10-18T03:07:32;101669.42;;;9.25;50.10
40372;BME280;28564;53.346;-6.554;2022-10-18T03:10:00;101672.04;;;9.20;50.06
40372;BME280;28564;53.346;-6.554;2022-10-18T03:12:27;101669.19;;;9.16;50.18
40372;BME280;28564;53.346;-6.554;2022-10-18T03:14:54;101670.90;;;9.15;50.27
40372;BME280;28564;53.346;-6.554;2022-10-18T03:17:22;101673.87;;;9.17;50.30
40372;BME280;28564;53.346;-6.554;2022-10-18T03:19:49;101675.24;;;9.16;50.25
40372;BME280;28564;53.346;-6.554;2022-10-18T03:22:16;101673.23;;;9.14;50.19
40372;BME280;28564;53.346;-6.554;2022-10-18T03:24:44;101669.49;;;9.12;50.14
40372;BME280;28564;53.346;-6.554;2022-10-18T03:27:11;101670.75;;;9.10;50.14
40372;BME280;28564;53.346;-6.554;2022-10-18T03:29:38;101672.98;;;9.03;50.17
40372;BME280;28564;53.346;-6.554;2022-10-18T03:32:06;101675.32;;;8.99;50.35
40372;BME280;28564;53.346;-6.554;2022-10-18T03:34:33;101680.40;;;9.01;50.42
40372;BME280;28564;53.346;-6.554;2022-10-18T03:37:00;101677.17;;;9.03;50.37
40372;BME280;28564;53.346;-6.554;2022-10-18T03:39:28;101677.65;;;8.77;50.35
40372;BME280;28564;53.346;-6.554;2022-10-18T03:41:55;101675.70;;;9.00;50.21
40372;BME280;28564;53.346;-6.554;2022-10-18T03:44:22;101680.13;;;8.90;50.26
40372;BME280;28564;53.346;-6.554;2022-10-18T03:46:50;101681.48;;;8.83;50.42
40372;BME280;28564;53.346;-6.554;2022-10-18T03:49:17;101682.83;;;8.83;50.61
40372;BME280;28564;53.346;-6.554;2022-10-18T03:51:44;101685.47;;;9.08;50.63
40372;BME280;28564;53.346;-6.554;2022-10-18T03:54:12;101688.91;;;8.88;50.65
40372;BME280;28564;53.346;-6.554;2022-10-18T03:56:39;101689.23;;;8.91;50.70
40372;BME280;28564;53.346;-6.554;2022-10-18T03:59:06;101694.39;;;9.14;50.60
40372;BME280;28564;53.346;-6.554;2022-10-18T04:01:34;101699.96;;;8.92;50.66
40372;BME280;28564;53.346;-6.554;2022-10-18T04:04:01;101694.88;;;9.16;50.65
40372;BME280;28564;53.346;-6.554;2022-10-18T04:06:29;101693.74;;;8.94;50.58
40372;BME280;28564;53.346;-6.554;2022-10-18T04:08:56;101698.94;;;8.94;50.60
40372;BME280;28564;53.346;-6.554;2022-10-18T04:11:23;101704.36;;;8.89;50.50
40372;BME280;28564;53.346;-6.554;2022-10-18T04:13:51;101706.75;;;8.85;50.61
40372;BME280;28564;53.346;-6.554;2022-10-18T04:16:18;101703.95;;;8.81;50.57
40372;BME280;28564;53.346;-6.554;2022-10-18T04:18:45;101704.43;;;8.79;50.74
40372;BME280;28564;53.346;-6.554;2022-10-18T04:21:13;101705.16;;;9.03;50.82
40372;BME280;28564;53.346;-6.554;2022-10-18T04:23:40;101704.22;;;8.84;50.93
40372;BME280;28564;53.346;-6.554;2022-10-18T04:26:07;101703.78;;;8.90;51.08
40372;BME280;28564;53.346;-6.554;2022-10-18T04:28:35;101703.96;;;8.94;51.13
40372;BME280;28564;53.346;-6.554;2022-10-18T04:31:02;101705.23;;;8.97;51.20
40372;BME280;28564;53.346;-6.554;2022-10-18T04:33:29;101705.24;;;9.00;51.28
40372;BME280;28564;53.346;-6.554;2022-10-18T04:35:57;101707.50;;;9.02;51.32
40372;BME280;28564;53.346;-6.554;2022-10-18T04:38:24;101710.51;;;9.06;51.19
40372;BME280;28564;53.346;-6.554;2022-10-18T04:40:51;101711.94;;;9.29;51.00
40372;BME280;28564;53.346;-6.554;2022-10-18T04:43:19;101711.89;;;9.02;51.08
40372;BME280;28564;53.346;-6.554;2022-10-18T04:45:46;101716.57;;;9.21;51.14
40372;BME280;28564;53.346;-6.554;2022-10-18T04:48:13;101722.08;;;8.95;51.31
40372;BME280;28564;53.346;-6.554;2022-10-18T04:50:41;101726.10;;;9.16;51.40
40372;BME280;28564;53.346;-6.554;2022-10-18T04:53:08;101731.53;;;8.93;51.43
40372;BME280;28564;53.346;-6.554;2022-10-18T04:55:35;101735.51;;;8.93;51.43
40372;BME280;28564;53.346;-6.554;2022-10-18T04:58:03;101737.77;;;8.94;51.41
40372;BME280;28564;53.346;-6.554;2022-10-18T05:00:30;101738.80;;;8.93;51.42
40372;BME280;28564;53.346;-6.554;2022-10-18T05:02:57;101737.01;;;8.93;51.43
40372;BME280;28564;53.346;-6.554;2022-10-18T05:05:25;101734.38;;;8.93;51.45
40372;BME280;28564;53.346;-6.554;2022-10-18T05:07:52;101733.93;;;9.12;51.38
40372;BME280;28564;53.346;-6.554;2022-10-18T05:10:19;101739.34;;;8.88;51.47
40372;BME280;28564;53.346;-6.554;2022-10-18T05:12:47;101739.67;;;8.86;51.44
40372;BME280;28564;53.346;-6.554;2022-10-18T05:15:14;101739.15;;;9.05;51.39
40372;BME280;28564;53.346;-6.554;2022-10-18T05:17:41;101742.87;;;8.82;51.50
40372;BME280;28564;53.346;-6.554;2022-10-18T05:20:09;101741.27;;;8.83;51.49
40372;BME280;28564;53.346;-6.554;2022-10-18T05:22:37;101745.34;;;9.06;51.57
40372;BME280;28564;53.346;-6.554;2022-10-18T05:25:05;101745.68;;;8.59;51.66
40372;BME280;28564;53.346;-6.554;2022-10-18T05:27:33;101748.32;;;8.88;51.70
40372;BME280;28564;53.346;-6.554;2022-10-18T05:30:00;101748.79;;;8.87;51.63
40372;BME280;28564;53.346;-6.554;2022-10-18T05:32:27;101749.55;;;9.10;51.61
40372;BME280;28564;53.346;-6.554;2022-10-18T05:34:54;101752.02;;;8.86;51.56
40372;BME280;28564;53.346;-6.554;2022-10-18T05:37:22;101750.47;;;9.28;51.55
40372;BME280;28564;53.346;-6.554;2022-10-18T05:39:49;101750.64;;;9.24;51.59
40372;BME280;28564;53.346;-6.554;2022-10-18T05:42:16;101752.90;;;9.00;51.61
40372;BME280;28564;53.346;-6.554;2022-10-18T05:44:44;101752.06;;;8.75;51.60
40372;BME280;28564;53.346;-6.554;2022-10-18T05:47:11;101755.43;;;8.75;51.61
40372;BME280;28564;53.346;-6.554;2022-10-18T05:49:38;101759.87;;;8.74;51.64
40372;BME280;28564;53.346;-6.554;2022-10-18T05:52:06;101766.53;;;8.73;51.70
40372;BME280;28564;53.346;-6.554;2022-10-18T05:54:33;101770.95;;;8.73;51.73
40372;BME280;28564;53.346;-6.554;2022-10-18T05:57:00;101771.93;;;8.72;51.68
40372;BME280;28564;53.346;-6.554;2022-10-18T05:59:28;101773.11;;;9.16;51.73
40372;BME280;28564;53.346;-6.554;2022-10-18T06:01:56;101773.16;;;8.72;51.60
40372;BME280;28564;53.346;-6.554;2022-10-18T06:04:23;101773.93;;;8.69;51.59
40372;BME280;28564;53.346;-6.554;2022-10-18T06:06:50;101770.87;;;8.87;51.62
40372;BME280;28564;53.346;-6.554;2022-10-18T06:09:18;101770.41;;;8.84;51.60
40372;BME280;28564;53.346;-6.554;2022-10-18T06:11:45;101774.75;;;8.80;51.66
40372;BME280;28564;53.346;-6.554;2022-10-18T06:14:12;101776.49;;;8.78;51.71
40372;BME280;28564;53.346;-6.554;2022-10-18T06:16:40;101772.42;;;8.54;51.72
40372;BME280;28564;53.346;-6.554;2022-10-18T06:19:07;101774.03;;;8.54;51.77
40372;BME280;28564;53.346;-6.554;2022-10-18T06:21:34;101775.97;;;8.75;51.81
40372;BME280;28564;53.346;-6.554;2022-10-18T06:24:02;101780.12;;;8.50;51.78
40372;BME280;28564;53.346;-6.554;2022-10-18T06:26:29;101783.04;;;8.50;51.87
40372;BME280;28564;53.346;-6.554;2022-10-18T06:28:56;101783.02;;;8.71;51.86
40372;BME280;28564;53.346;-6.554;2022-10-18T06:31:24;101781.19;;;8.48;51.89
40372;BME280;28564;53.346;-6.554;2022-10-18T06:33:51;101780.90;;;8.48;51.93
40372;BME280;28564;53.346;-6.554;2022-10-18T06:36:20;101783.02;;;8.50;52.06
40372;BME280;28564;53.346;-6.554;2022-10-18T06:38:48;101782.09;;;8.98;52.06
40372;BME280;28564;53.346;-6.554;2022-10-18T06:41:16;101780.23;;;8.78;52.06
40372;BME280;28564;53.346;-6.554;2022-10-18T06:43:47;101774.41;;;8.81;52.21
40372;BME280;28564;53.346;-6.554;2022-10-18T06:46:14;101776.38;;;8.65;52.46
40372;BME280;28564;53.346;-6.554;2022-10-18T06:48:41;101783.20;;;8.96;52.52
40372;BME280;28564;53.346;-6.554;2022-10-18T06:51:09;101788.23;;;8.78;52.37
40372;BME280;28564;53.346;-6.554;2022-10-18T06:53:38;101792.34;;;8.80;52.53
40372;BME280;28564;53.346;-6.554;2022-10-18T06:56:08;101794.28;;;8.90;52.93
40372;BME280;28564;53.346;-6.554;2022-10-18T06:58:36;101797.78;;;9.01;53.16
40372;BME280;28564;53.346;-6.554;2022-10-18T07:01:08;101795.57;;;9.12;53.07
40372;BME280;28564;53.346;-6.554;2022-10-18T07:03:36;101795.07;;;8.92;53.16
40372;BME280;28564;53.346;-6.554;2022-10-18T07:06:04;101797.66;;;9.27;53.42
40372;BME280;28564;53.346;-6.554;2022-10-18T07:08:32;101799.70;;;9.11;53.51
40372;BME280;28564;53.346;-6.554;2022-10-18T07:11:03;101803.62;;;9.46;53.60
40372;BME280;28564;53.346;-6.554;2022-10-18T07:13:32;101804.34;;;9.57;53.68
40372;BME280;28564;53.346;-6.554;2022-10-18T07:16:02;101801.91;;;9.65;53.66
40372;BME280;28564;53.346;-6.554;2022-10-18T07:18:31;101804.01;;;9.69;53.74
40372;BME280;28564;53.346;-6.554;2022-10-18T07:21:00;101811.07;;;9.74;53.82
40372;BME280;28564;53.346;-6.554;2022-10-18T07:23:28;101805.05;;;9.78;53.86
40372;BME280;28564;53.346;-6.554;2022-10-18T07:25:55;101807.22;;;9.84;54.29
40372;BME280;28564;53.346;-6.554;2022-10-18T07:28:22;101805.91;;;9.88;54.57
40372;BME280;28564;53.346;-6.554;2022-10-18T07:30:50;101808.06;;;9.66;54.54
40372;BME280;28564;53.346;-6.554;2022-10-18T07:33:18;101819.69;;;9.71;54.73
40372;BME280;28564;53.346;-6.554;2022-10-18T07:35:46;101829.05;;;10.04;54.81
40372;BME280;28564;53.346;-6.554;2022-10-18T07:38:13;101833.08;;;9.60;54.64
40372;BME280;28564;53.346;-6.554;2022-10-18T07:40:42;101831.05;;;9.64;54.47
40372;BME280;28564;53.346;-6.554;2022-10-18T07:43:09;101829.11;;;9.89;54.31
40372;BME280;28564;53.346;-6.554;2022-10-18T07:45:36;101832.38;;;9.70;54.19
40372;BME280;28564;53.346;-6.554;2022-10-18T07:48:04;101837.27;;;9.74;54.19
40372;BME280;28564;53.346;-6.554;2022-10-18T07:50:31;101845.64;;;9.78;54.14
40372;BME280;28564;53.346;-6.554;2022-10-18T07:52:58;101851.43;;;9.82;54.25
40372;BME280;28564;53.346;-6.554;2022-10-18T07:55:25;101852.59;;;10.37;54.49
40372;BME280;28564;53.346;-6.554;2022-10-18T07:57:52;101854.99;;;9.95;54.65
40372;BME280;28564;53.346;-6.554;2022-10-18T08:00:20;101858.00;;;10.04;54.71
40372;BME280;28564;53.346;-6.554;2022-10-18T08:02:47;101857.83;;;10.12;54.68
40372;BME280;28564;53.346;-6.554;2022-10-18T08:05:14;101860.66;;;10.21;54.71
40372;BME280;28564;53.346;-6.554;2022-10-18T08:07:42;101863.57;;;10.28;54.88
40372;BME280;28564;53.346;-6.554;2022-10-18T08:10:09;101876.18;;;10.38;54.84
40372;BME280;28564;53.346;-6.554;2022-10-18T08:12:36;101882.45;;;10.19;54.72
40372;BME280;28564;53.346;-6.554;2022-10-18T08:15:04;101886.44;;;10.54;54.67
40372;BME280;28564;53.346;-6.554;2022-10-18T08:17:32;101892.26;;;10.36;54.95
40372;BME280;28564;53.346;-6.554;2022-10-18T08:19:59;101900.96;;;10.72;55.02
40372;BME280;28564;53.346;-6.554;2022-10-18T08:22:26;101903.67;;;10.81;55.21
40372;BME280;28564;53.346;-6.554;2022-10-18T08:24:53;101900.35;;;10.63;55.23
40372;BME280;28564;53.346;-6.554;2022-10-18T08:27:21;101901.96;;;10.75;55.36
40372;BME280;28564;53.346;-6.554;2022-10-18T08:29:48;101904.07;;;10.87;55.45
40372;BME280;28564;53.346;-6.554;2022-10-18T08:32:15;101910.20;;;10.78;55.50
40372;BME280;28564;53.346;-6.554;2022-10-18T08:34:42;101910.06;;;10.92;55.58
40372;BME280;28564;53.346;-6.554;2022-10-18T08:37:10;101904.52;;;11.32;55.77
40372;BME280;28564;53.346;-6.554;2022-10-18T08:39:37;101903.08;;;11.48;56.06
40372;BME280;28564;53.346;-6.554;2022-10-18T08:42:16;101904.04;;;11.43;56.21
40372;BME280;28564;53.346;-6.554;2022-10-18T08:44:49;101908.50;;;11.62;56.47
40372;BME280;28564;53.346;-6.554;2022-10-18T08:47:18;101910.66;;;11.80;56.26
40372;BME280;28564;53.346;-6.554;2022-10-18T08:49:49;101901.80;;;11.95;56.26
40372;BME280;28564;53.346;-6.554;2022-10-18T08:52:27;101900.77;;;11.59;56.13
40372;BME280;28564;53.346;-6.554;2022-10-18T08:55:00;101905.08;;;11.96;55.99
40372;BME280;28564;53.346;-6.554;2022-10-18T08:57:29;101900.53;;;12.27;56.20
40372;BME280;28564;53.346;-6.554;2022-10-18T08:59:57;101899.35;;;11.84;56.06
40372;BME280;28564;53.346;-6.554;2022-10-18T09:02:35;101891.76;;;11.89;56.42
40372;BME280;28564;53.346;-6.554;2022-10-18T09:05:17;101885.29;;;11.95;56.76
40372;BME280;28564;53.346;-6.554;2022-10-18T09:08:01;101881.60;;;12.02;56.77
40372;BME280;28564;53.346;-6.554;2022-10-18T09:10:40;101882.26;;;12.11;57.06
40372;BME280;28564;53.346;-6.554;2022-10-18T09:13:42;101884.73;;;12.26;57.17
40372;BME280;28564;53.346;-6.554;2022-10-18T09:16:20;101889.19;;;12.52;57.26
40372;BME280;28564;53.346;-6.554;2022-10-18T09:18:57;101885.08;;;12.72;57.11
40372;BME280;28564;53.346;-6.554;2022-10-18T09:21:38;101879.42;;;12.87;56.79
40372;BME280;28564;53.346;-6.554;2022-10-18T09:24:12;101881.17;;;13.02;56.89
40372;BME280;28564;53.346;-6.554;2022-10-18T09:26:43;101881.71;;;12.95;56.82
40372;BME280;28564;53.346;-6.554;2022-10-18T09:29:25;101884.61;;;13.09;56.88
40372;BME280;28564;53.346;-6.554;2022-10-18T09:32:01;101887.89;;;13.41;56.97
40372;BME280;28564;53.346;-6.554;2022-10-18T09:34:36;101893.93;;;13.50;57.42
40372;BME280;28564;53.346;-6.554;2022-10-18T09:37:10;101892.48;;;13.61;57.73
40372;BME280;28564;53.346;-6.554;2022-10-18T09:39:38;101886.52;;;13.73;58.48
40372;BME280;28564;53.346;-6.554;2022-10-18T09:42:12;101885.51;;;13.40;58.18
40372;BME280;28564;53.346;-6.554;2022-10-18T09:44:44;101882.36;;;13.50;58.12
40372;BME280;28564;53.346;-6.554;2022-10-18T09:47:17;101884.31;;;13.66;58.28
40372;BME280;28564;53.346;-6.554;2022-10-18T09:49:50;101876.13;;;13.84;58.59
40372;BME280;28564;53.346;-6.554;2022-10-18T09:52:22;101878.52;;;13.99;58.69
40372;BME280;28564;53.346;-6.554;2022-10-18T09:54:52;101884.07;;;13.90;58.55
40372;BME280;28564;53.346;-6.554;2022-10-18T09:57:26;101886.17;;;14.08;58.34
40372;BME280;28564;53.346;-6.554;2022-10-18T09:59:57;101888.41;;;14.54;58.36
40372;BME280;28564;53.346;-6.554;2022-10-18T10:02:26;101893.19;;;14.29;58.48
40372;BME280;28564;53.346;-6.554;2022-10-18T10:04:53;101895.04;;;14.50;58.63
40372;BME280;28564;53.346;-6.554;2022-10-18T10:07:24;101892.37;;;14.76;58.70
40372;BME280;28564;53.346;-6.554;2022-10-18T10:09:56;101891.34;;;14.70;58.41
40372;BME280;28564;53.346;-6.554;2022-10-18T10:12:29;101887.09;;;15.18;58.13
40372;BME280;28564;53.346;-6.554;2022-10-18T10:15:07;101891.80;;;15.30;57.65
40372;BME280;28564;53.346;-6.554;2022-10-18T10:17:36;101883.42;;;15.19;57.20
40372;BME280;28564;53.346;-6.554;2022-10-18T10:20:14;101884.75;;;15.14;56.96
40372;BME280;28564;53.346;-6.554;2022-10-18T10:22:45;101883.09;;;15.39;56.63
40372;BME280;28564;53.346;-6.554;2022-10-18T10:25:21;101885.76;;;15.60;56.21
40372;BME280;28564;53.346;-6.554;2022-10-18T10:27:49;101885.26;;;15.94;55.80
40372;BME280;28564;53.346;-6.554;2022-10-18T10:30:23;101886.91;;;16.23;55.21
40372;BME280;28564;53.346;-6.554;2022-10-18T10:32:52;101891.81;;;16.07;54.76
40372;BME280;28564;53.346;-6.554;2022-10-18T10:35:22;101891.48;;;16.72;54.27
40372;BME280;28564;53.346;-6.554;2022-10-18T10:37:52;101888.17;;;16.80;53.33
40372;BME280;28564;53.346;-6.554;2022-10-18T10:40:21;101888.14;;;17.06;52.78
40372;BME280;28564;53.346;-6.554;2022-10-18T10:43:02;101885.96;;;17.29;52.19
40372;BME280;28564;53.346;-6.554;2022-10-18T10:45:34;101879.21;;;17.22;51.81
40372;BME280;28564;53.346;-6.554;2022-10-18T10:48:05;101872.22;;;17.61;51.32
40372;BME280;28564;53.346;-6.554;2022-10-18T10:50:48;101871.78;;;17.78;51.40
40372;BME280;28564;53.346;-6.554;2022-10-18T10:53:26;101872.95;;;17.95;51.48
40372;BME280;28564;53.346;-6.554;2022-10-18T10:55:55;101878.49;;;17.84;51.12
40372;BME280;28564;53.346;-6.554;2022-10-18T10:58:26;101876.39;;;17.81;51.03
40372;BME280;28564;53.346;-6.554;2022-10-18T11:00:55;101876.03;;;17.74;50.87
40372;BME280;28564;53.346;-6.554;2022-10-18T11:03:23;101881.94;;;17.85;50.73
40372;BME280;28564;53.346;-6.554;2022-10-18T11:05:52;101889.46;;;17.77;50.84
40372;BME280;28564;53.346;-6.554;2022-10-18T11:08:23;101892.54;;;17.71;50.73
40372;BME280;28564;53.346;-6.554;2022-10-18T11:11:01;101899.70;;;17.81;50.69
40372;BME280;28564;53.346;-6.554;2022-10-18T11:13:44;101897.50;;;17.84;51.00
40372;BME280;28564;53.346;-6.554;2022-10-18T11:16:17;101900.05;;;18.13;50.41
40372;BME280;28564;53.346;-6.554;2022-10-18T11:18:48;101899.21;;;18.35;50.36
40372;BME280;28564;53.346;-6.554;2022-10-18T11:21:21;101897.33;;;18.34;50.01
40372;BME280;28564;53.346;-6.554;2022-10-18T11:23:51;101899.75;;;18.69;49.62
40372;BME280;28564;53.346;-6.554;2022-10-18T11:26:28;101898.53;;;18.68;49.21
40372;BME280;28564;53.346;-6.554;2022-10-18T11:29:12;101894.48;;;19.04;49.06
40372;BME280;28564;53.346;-6.554;2022-10-18T11:31:46;101893.99;;;19.17;48.92
40372;BME280;28564;53.346;-6.554;2022-10-18T11:34:28;101892.30;;;19.41;48.15
40372;BME280;28564;53.346;-6.554;2022-10-18T11:37:04;101882.20;;;19.46;48.01
40372;BME280;28564;53.346;-6.554;2022-10-18T11:39:44;101881.14;;;19.47;47.73
40372;BME280;28564;53.346;-6.554;2022-10-18T11:42:22;101881.91;;;19.48;48.01
40372;BME280;28564;53.346;-6.554;2022-10-18T11:45:00;101884.75;;;19.35;47.72
40372;BME280;28564;53.346;-6.554;2022-10-18T11:47:38;101879.53;;;18.97;48.00
40372;BME280;28564;53.346;-6.554;2022-10-18T11:50:15;101877.00;;;18.89;48.23
40372;BME280;28564;53.346;-6.554;2022-10-18T11:52:51;101868.25;;;18.45;48.65
40372;BME280;28564;53.346;-6.554;2022-10-18T11:55:34;101866.24;;;18.55;48.66
40372;BME280;28564;53.346;-6.554;2022-10-18T11:58:18;101872.08;;;18.24;48.94
40372;BME280;28564;53.346;-6.554;2022-10-18T12:00:52;101871.52;;;18.70;49.31
40372;BME280;28564;53.346;-6.554;2022-10-18T12:03:31;101879.31;;;19.32;48.00
40372;BME280;28564;53.346;-6.554;2022-10-18T12:06:04;101869.00;;;19.56;46.81
40372;BME280;28564;53.346;-6.554;2022-10-18T12:08:35;101865.29;;;20.53;45.21
40372;BME280;28564;53.346;-6.554;2022-10-18T12:11:10;101863.03;;;20.33;44.03
40372;BME280;28564;53.346;-6.554;2022-10-18T12:13:43;101861.89;;;20.36;43.12
40372;BME280;28564;53.346;-6.554;2022-10-18T12:16:12;101865.87;;;20.42;42.56
40372;BME280;28564;53.346;-6.554;2022-10-18T12:18:48;101868.37;;;20.76;42.39
40372;BME280;28564;53.346;-6.554;2022-10-18T12:21:20;101868.14;;;21.58;42.23
40372;BME280;28564;53.346;-6.554;2022-10-18T12:23:52;101868.63;;;22.74;39.54
40372;BME280;28564;53.346;-6.554;2022-10-18T12:26:22;101857.19;;;23.35;38.50
40372;BME280;28564;53.346;-6.554;2022-10-18T12:28:56;101849.65;;;24.14;37.03
40372;BME280;28564;53.346;-6.554;2022-10-18T12:31:29;101848.90;;;25.01;35.38
40372;BME280;28564;53.346;-6.554;2022-10-18T12:34:00;101842.39;;;24.94;33.61
40372;BME280;28564;53.346;-6.554;2022-10-18T12:36:47;101841.09;;;25.30;32.82
40372;BME280;28564;53.346;-6.554;2022-10-18T12:39:22;101839.46;;;26.09;31.72
40372;BME280;28564;53.346;-6.554;2022-10-18T12:41:53;101834.98;;;26.54;31.48
40372;BME280;28564;53.346;-6.554;2022-10-18T12:44:27;101833.76;;;27.55;30.50
40372;BME280;28564;53.346;-6.554;2022-10-18T12:46:57;101822.75;;;27.61;29.64
40372;BME280;28564;53.346;-6.554;2022-10-18T12:49:29;101819.30;;;27.90;28.94
40372;BME280;28564;53.346;-6.554;2022-10-18T12:51:58;101817.96;;;27.95;29.07
40372;BME280;28564;53.346;-6.554;2022-10-18T12:54:28;101812.87;;;28.24;29.16
40372;BME280;28564;53.346;-6.554;2022-10-18T12:56:55;101813.31;;;27.86;29.72
40372;BME280;28564;53.346;-6.554;2022-10-18T12:59:50;101816.96;;;26.52;30.40
40372;BME280;28564;53.346;-6.554;2022-10-18T13:02:28;101814.74;;;25.21;32.14
40372;BME280;28564;53.346;-6.554;2022-10-18T13:04:57;101815.65;;;24.28;33.92